Time;durP1;ratioP1;P1;durP2;ratioP2;P2;SDS_P1;SDS_P2;PMS_P1;PMS_P2;Temp;Humidity;BMP_temperature;BMP_pressure;BME280_temperature;BME280_humidity;BME280_pressure;Samples;Min_cycle;Max_cycle;Signal;HPM_P1;HPM_P2
2021/05/12 00:00:33;;;;;;;5.07;1.75;;;8.30;99.90;;;;;;5037694;28;20048;-73
2021/05/12 00:02:59;;;;;;;6.45;1.65;;;8.20;99.90;;;;;;5038636;28;20045;-73
2021/05/12 00:05:26;;;;;;;5.85;1.88;;;8.20;99.90;;;;;;5038711;28;20045;-73
2021/05/12 00:07:52;;;;;;;8.73;2.10;;;8.10;99.90;;;;;;5038494;28;20080;-74
2021/05/12 00:10:20;;;;;;;7.38;2.08;;;8.20;99.90;;;;;;5038936;28;20049;-73
2021/05/12 00:12:46;;;;;;;7.97;1.77;;;8.20;99.90;;;;;;5038431;28;20496;-73
2021/05/12 00:15:16;;;;;;;6.25;1.70;;;8.10;99.90;;;;;;5038581;28;20067;-73
2021/05/12 00:17:44;;;;;;;6.22;1.80;;;8.00;99.90;;;;;;5038190;28;20127;-73
2021/05/12 00:20:11;;;;;;;8.13;1.60;;;7.90;99.90;;;;;;5038405;28;20041;-73
2021/05/12 00:22:49;;;;;;;7.00;1.83;;;7.80;99.90;;;;;;5038130;28;20069;-73
2021/05/12 00:25:15;;;;;;;7.80;1.80;;;7.70;99.90;;;;;;5038096;28;20044;-73
2021/05/12 00:27:41;;;;;;;7.75;1.77;;;7.80;99.90;;;;;;5038599;28;20037;-73
2021/05/12 00:30:10;;;;;;;9.00;2.05;;;7.60;99.90;;;;;;5037691;28;20063;-73
2021/05/12 00:32:36;;;;;;;3.92;1.95;;;7.50;99.90;;;;;;5038108;28;20136;-73
2021/05/12 00:35:03;;;;;;;4.88;1.52;;;7.50;99.90;;;;;;5037860;28;20041;-73
2021/05/12 00:37:28;;;;;;;5.93;1.65;;;7.40;99.90;;;;;;5037763;28;20492;-73
2021/05/12 00:39:54;;;;;;;8.80;1.42;;;7.30;99.90;;;;;;5037832;28;20125;-73
2021/05/12 00:42:20;;;;;;;4.40;2.17;;;7.30;99.90;;;;;;5037485;28;20562;-73
2021/05/12 00:44:46;;;;;;;6.85;1.70;;;7.40;99.90;;;;;;5037754;28;20132;-73
2021/05/12 00:47:12;;;;;;;5.35;1.40;;;7.30;99.90;;;;;;5037763;28;20033;-73
2021/05/12 00:49:38;;;;;;;9.98;1.85;;;7.30;99.90;;;;;;5037492;28;20037;-73
2021/05/12 00:52:04;;;;;;;5.88;1.60;;;7.30;99.90;;;;;;5037520;28;20488;-73
2021/05/12 00:54:32;;;;;;;6.07;1.95;;;7.30;99.90;;;;;;5037862;28;20136;-73
2021/05/12 00:56:58;;;;;;;8.30;2.10;;;7.10;99.90;;;;;;5037405;28;20069;-73
2021/05/12 00:59:31;;;;;;;7.38;1.80;;;7.00;99.90;;;;;;5037973;28;20033;-73
2021/05/12 01:01:58;;;;;;;5.60;1.77;;;7.10;99.90;;;;;;5036929;28;20042;-73
2021/05/12 01:04:24;;;;;;;5.97;2.05;;;7.10;99.90;;;;;;5036085;28;20131;-73
2021/05/12 01:06:49;;;;;;;8.45;2.05;;;7.10;99.90;;;;;;5037577;28;20111;-73
2021/05/12 01:09:15;;;;;;;10.20;2.22;;;7.00;99.90;;;;;;5037530;28;20383;-73
2021/05/12 01:11:41;;;;;;;6.22;1.90;;;6.90;99.90;;;;;;5035959;28;20052;-73
2021/05/12 01:14:07;;;;;;;6.53;1.80;;;6.90;99.90;;;;;;5036945;28;20099;-73
2021/05/12 01:16:33;;;;;;;8.07;2.08;;;6.90;99.90;;;;;;5037387;28;20034;-73
2021/05/12 01:18:59;;;;;;;9.93;3.00;;;6.90;99.90;;;;;;5037073;28;20067;-73
2021/05/12 01:21:25;;;;;;;6.07;2.75;;;7.00;99.90;;;;;;5037085;28;20037;-73
2021/05/12 01:23:51;;;;;;;6.60;2.05;;;6.90;99.90;;;;;;5037019;28;20045;-73
2021/05/12 01:26:21;;;;;;;6.03;2.10;;;6.90;99.90;;;;;;5036771;28;20044;-73
2021/05/12 01:28:51;;;;;;;10.52;2.20;;;6.80;99.90;;;;;;5036791;28;20068;-73
2021/05/12 01:31:21;;;;;;;6.38;2.20;;;6.80;99.90;;;;;;5036648;28;20049;-73
2021/05/12 01:33:48;;;;;;;9.37;2.60;;;6.90;99.90;;;;;;5036115;28;20037;-73
2021/05/12 01:36:14;;;;;;;8.60;2.55;;;6.90;99.90;;;;;;5036742;28;20120;-73
2021/05/12 01:38:42;;;;;;;7.05;1.90;;;7.00;99.90;;;;;;5036244;28;20072;-73
2021/05/12 01:41:08;;;;;;;7.10;1.98;;;7.00;99.90;;;;;;5036744;28;20042;-73
2021/05/12 01:43:35;;;;;;;8.82;2.00;;;7.00;99.90;;;;;;5036842;28;20047;-73
2021/05/12 01:46:02;;;;;;;6.95;2.35;;;6.80;99.90;;;;;;5036903;28;20037;-73
2021/05/12 01:48:28;;;;;;;8.55;1.75;;;6.70;99.90;;;;;;5036512;28;20042;-73
2021/05/12 01:50:55;;;;;;;5.80;2.03;;;6.80;99.90;;;;;;5036452;28;20037;-73
2021/05/12 01:53:21;;;;;;;6.40;1.98;;;6.70;99.90;;;;;;5036576;28;20045;-73
2021/05/12 01:55:48;;;;;;;4.88;1.90;;;6.80;99.90;;;;;;5036191;28;20365;-73
2021/05/12 01:58:15;;;;;;;6.15;2.45;;;6.80;99.90;;;;;;5036089;28;20040;-73
2021/05/12 02:00:46;;;;;;;6.22;2.15;;;6.90;99.90;;;;;;5036162;28;20504;-73
2021/05/12 02:03:12;;;;;;;5.50;1.75;;;7.00;99.90;;;;;;5035847;28;20500;-73
2021/05/12 02:05:40;;;;;;;4.22;2.00;;;6.90;99.90;;;;;;5036724;28;20034;-73
2021/05/12 02:08:09;;;;;;;5.68;1.92;;;6.90;99.90;;;;;;5036343;28;20041;-73
2021/05/12 02:10:37;;;;;;;6.60;1.58;;;7.10;99.90;;;;;;5036129;28;20099;-73
2021/05/12 02:13:03;;;;;;;8.07;1.80;;;7.20;99.90;;;;;;5036227;28;20208;-73
2021/05/12 02:15:29;;;;;;;3.47;1.70;;;7.20;99.90;;;;;;5036020;28;20380;-73
2021/05/12 02:17:55;;;;;;;8.15;2.03;;;7.20;99.90;;;;;;5035482;28;20042;-73
2021/05/12 02:20:29;;;;;;;6.28;2.28;;;7.20;99.90;;;;;;5035656;28;20037;-73
2021/05/12 02:22:55;;;;;;;6.65;2.17;;;7.00;99.90;;;;;;5035471;28;20045;-73
2021/05/12 02:25:21;;;;;;;9.18;2.47;;;6.90;99.90;;;;;;5035910;28;20060;-74
2021/05/12 02:27:47;;;;;;;7.78;2.70;;;6.80;99.90;;;;;;5036212;28;20041;-73
2021/05/12 02:30:14;;;;;;;6.28;1.98;;;6.80;99.90;;;;;;5036215;28;20063;-73
2021/05/12 02:32:40;;;;;;;8.18;2.50;;;6.70;99.90;;;;;;5035680;28;20049;-73
2021/05/12 02:35:08;;;;;;;8.00;1.80;;;6.60;99.90;;;;;;5036033;28;20069;-73
2021/05/12 02:37:35;;;;;;;8.27;1.90;;;6.60;99.90;;;;;;5035914;28;20041;-73
2021/05/12 02:40:05;;;;;;;7.00;1.77;;;6.60;99.90;;;;;;5035967;28;20043;-73
2021/05/12 02:42:31;;;;;;;10.13;1.95;;;6.50;99.90;;;;;;5036127;28;20049;-73
2021/05/12 02:44:57;;;;;;;3.17;1.42;;;6.50;99.90;;;;;;5036134;28;20059;-73
2021/05/12 02:47:23;;;;;;;10.80;2.08;;;6.50;99.90;;;;;;5035702;28;20041;-73
2021/05/12 02:49:49;;;;;;;6.22;1.80;;;6.40;99.90;;;;;;5035188;28;20041;-73
2021/05/12 02:52:14;;;;;;;7.07;1.75;;;6.20;99.90;;;;;;5035895;28;20037;-73
2021/05/12 02:54:40;;;;;;;8.23;1.85;;;6.40;99.90;;;;;;5035913;28;20037;-73
2021/05/12 02:57:07;;;;;;;5.70;1.75;;;6.30;99.90;;;;;;5036041;28;20029;-73
2021/05/12 02:59:32;;;;;;;10.82;4.90;;;6.40;99.90;;;;;;5035559;28;20048;-73
2021/05/12 03:01:58;;;;;;;7.63;1.80;;;6.30;99.90;;;;;;5034835;28;20366;-73
2021/05/12 03:04:25;;;;;;;8.07;1.90;;;6.20;99.90;;;;;;5035455;28;20048;-73
2021/05/12 03:06:50;;;;;;;4.20;1.70;;;6.20;99.90;;;;;;5035394;28;20123;-73
2021/05/12 03:09:16;;;;;;;6.53;2.30;;;6.30;99.90;;;;;;5035376;28;20041;-73
2021/05/12 03:11:42;;;;;;;7.25;2.50;;;6.30;99.90;;;;;;5034992;28;20053;-73
2021/05/12 03:14:09;;;;;;;6.53;2.50;;;6.30;99.90;;;;;;5035087;28;20074;-73
2021/05/12 03:16:36;;;;;;;6.57;1.90;;;6.40;99.90;;;;;;5035236;28;20041;-74
2021/05/12 03:19:04;;;;;;;12.52;3.05;;;6.50;99.90;;;;;;5035126;28;20045;-73
2021/05/12 03:21:31;;;;;;;8.38;2.30;;;6.50;99.90;;;;;;5035498;28;20038;-73
2021/05/12 03:23:57;;;;;;;8.98;2.20;;;6.50;99.90;;;;;;5035013;28;20041;-73
2021/05/12 03:26:23;;;;;;;7.90;1.70;;;6.40;99.90;;;;;;5034849;28;20037;-74
2021/05/12 03:28:49;;;;;;;6.20;1.95;;;6.20;99.90;;;;;;5034944;28;20037;-73
2021/05/12 03:31:15;;;;;;;7.78;2.25;;;6.00;99.90;;;;;;5035077;28;20115;-73
2021/05/12 03:33:42;;;;;;;5.78;1.88;;;6.00;99.90;;;;;;5034011;28;20033;-73
2021/05/12 03:36:10;;;;;;;6.85;2.60;;;5.90;99.90;;;;;;5034699;28;20041;-73
2021/05/12 03:38:36;;;;;;;4.35;2.05;;;5.90;99.90;;;;;;5033905;28;20114;-73
2021/05/12 03:41:03;;;;;;;7.00;1.98;;;5.90;99.90;;;;;;5034625;28;20128;-74
2021/05/12 03:43:29;;;;;;;7.13;2.13;;;6.00;99.90;;;;;;5034594;28;20067;-73
2021/05/12 03:45:55;;;;;;;9.10;1.90;;;6.00;99.90;;;;;;5034573;28;20049;-73
2021/05/12 03:48:21;;;;;;;6.22;2.65;;;6.00;99.90;;;;;;5034554;28;20037;-73
2021/05/12 03:50:47;;;;;;;5.53;1.80;;;5.90;99.90;;;;;;5034446;28;20212;-73
2021/05/12 03:53:13;;;;;;;5.97;2.10;;;5.70;99.90;;;;;;5034039;28;20586;-73
2021/05/12 03:55:39;;;;;;;7.32;2.03;;;5.80;99.90;;;;;;5034176;28;20044;-74
2021/05/12 03:58:06;;;;;;;10.23;2.42;;;5.80;99.90;;;;;;5034293;28;20131;-73
2021/05/12 04:00:32;;;;;;;6.45;2.00;;;5.70;99.90;;;;;;5034377;28;20099;-73
2021/05/12 04:02:58;;;;;;;8.70;2.20;;;5.70;99.90;;;;;;5034365;28;20128;-73
2021/05/12 04:05:24;;;;;;;7.85;2.15;;;5.80;99.90;;;;;;5033962;28;20044;-73
2021/05/12 04:07:50;;;;;;;6.68;1.85;;;5.80;99.90;;;;;;5034531;28;20033;-73
2021/05/12 04:10:17;;;;;;;7.13;2.20;;;5.70;99.90;;;;;;5034890;28;20384;-73
2021/05/12 04:12:43;;;;;;;9.77;2.38;;;5.60;99.90;;;;;;5033843;28;20447;-73
2021/05/12 04:15:10;;;;;;;4.55;1.50;;;5.60;99.90;;;;;;5034567;28;20086;-73
2021/05/12 04:17:37;;;;;;;8.23;1.90;;;5.50;99.90;;;;;;5033783;28;20033;-73
2021/05/12 04:20:10;;;;;;;7.43;1.77;;;5.50;99.90;;;;;;5034241;28;20041;-74
2021/05/12 04:22:37;;;;;;;5.38;1.77;;;5.50;99.90;;;;;;5034635;28;20045;-73
2021/05/12 04:25:05;;;;;;;13.68;2.30;;;5.50;99.90;;;;;;5033784;28;20045;-73
2021/05/12 04:27:30;;;;;;;7.38;2.38;;;5.60;99.90;;;;;;5034354;28;20038;-73
2021/05/12 04:29:57;;;;;;;6.57;1.65;;;5.60;99.90;;;;;;5034751;28;20461;-73
2021/05/12 04:32:23;;;;;;;7.78;1.95;;;5.70;99.90;;;;;;5034458;28;20046;-73
2021/05/12 04:34:49;;;;;;;3.80;1.73;;;5.80;99.90;;;;;;5034613;28;20488;-73
2021/05/12 04:37:14;;;;;;;6.65;1.67;;;6.00;99.90;;;;;;5034591;28;20037;-73
2021/05/12 04:39:40;;;;;;;6.18;1.38;;;6.20;99.90;;;;;;5033995;28;20037;-73
2021/05/12 04:42:06;;;;;;;7.53;1.98;;;6.20;99.90;;;;;;5034295;28;20064;-73
2021/05/12 04:44:32;;;;;;;3.63;1.67;;;6.30;99.90;;;;;;5034196;28;20119;-73
2021/05/12 04:46:58;;;;;;;8.57;1.80;;;6.30;99.90;;;;;;5037619;28;20480;-73
2021/05/12 04:49:24;;;;;;;5.05;1.30;;;6.40;99.90;;;;;;5037725;28;20041;-73
2021/05/12 04:51:50;;;;;;;5.75;1.50;;;6.20;99.90;;;;;;5037872;28;20053;-73
2021/05/12 04:54:16;;;;;;;3.92;1.50;;;6.20;99.90;;;;;;5037581;28;20059;-73
2021/05/12 04:56:42;;;;;;;4.95;1.50;;;6.40;99.90;;;;;;5037512;28;20029;-73
2021/05/12 04:59:08;;;;;;;7.10;1.63;;;6.40;99.90;;;;;;5037873;28;20045;-73
2021/05/12 05:01:34;;;;;;;8.05;1.95;;;6.40;99.90;;;;;;5037326;28;20037;-73
2021/05/12 05:04:01;;;;;;;4.57;1.38;;;6.40;99.90;;;;;;5037297;28;20041;-73
2021/05/12 05:06:27;;;;;;;7.75;1.60;;;6.20;99.90;;;;;;5037611;28;20112;-73
2021/05/12 05:08:53;;;;;;;7.68;1.60;;;6.40;99.90;;;;;;5037707;28;20072;-73
2021/05/12 05:11:19;;;;;;;6.55;2.10;;;6.60;99.90;;;;;;5037484;28;20111;-73
2021/05/12 05:13:45;;;;;;;4.13;1.55;;;6.70;99.90;;;;;;5037395;28;20049;-73
2021/05/12 05:16:12;;;;;;;4.75;1.52;;;6.80;99.90;;;;;;5037519;28;20109;-73
2021/05/12 05:18:38;;;;;;;5.97;1.42;;;7.00;99.90;;;;;;5037225;28;20049;-73
2021/05/12 05:21:06;;;;;;;6.03;1.40;;;7.00;99.90;;;;;;5035280;28;20415;-73
2021/05/12 05:23:35;;;;;;;7.18;1.75;;;6.90;99.90;;;;;;5037142;28;20040;-73
2021/05/12 05:26:02;;;;;;;5.35;1.20;;;7.20;99.90;;;;;;5036704;28;20068;-73
2021/05/12 05:28:28;;;;;;;5.15;1.38;;;7.60;99.90;;;;;;5036949;28;20114;-73
2021/05/12 05:30:54;;;;;;;6.32;1.60;;;7.60;99.90;;;;;;5037327;28;20053;-73
2021/05/12 05:33:20;;;;;;;6.85;1.58;;;7.80;99.90;;;;;;5037042;28;20041;-73
2021/05/12 05:35:46;;;;;;;4.85;1.17;;;7.80;99.90;;;;;;5037123;28;20048;-73
2021/05/12 05:38:12;;;;;;;6.75;2.03;;;8.00;99.90;;;;;;5036879;28;20041;-73
2021/05/12 05:40:38;;;;;;;7.95;1.27;;;7.80;99.90;;;;;;5036700;28;20041;-73
2021/05/12 05:43:07;;;;;;;5.85;1.10;;;8.00;99.90;;;;;;5037225;28;20067;-73
2021/05/12 05:45:33;;;;;;;5.43;1.38;;;8.80;99.90;;;;;;5036673;28;20072;-73
2021/05/12 05:47:59;;;;;;;7.63;1.20;;;9.30;99.90;;;;;;5036587;28;20072;-73
2021/05/12 05:50:25;;;;;;;3.85;1.60;;;9.60;99.90;;;;;;5035852;28;20468;-73
2021/05/12 05:52:55;;;;;;;6.85;1.58;;;9.50;99.90;;;;;;5035819;28;20048;-74
2021/05/12 05:55:22;;;;;;;4.65;1.45;;;9.40;99.90;;;;;;5035666;28;20415;-73
2021/05/12 05:57:49;;;;;;;6.22;1.65;;;9.10;99.90;;;;;;5034743;28;20484;-73
2021/05/12 06:00:16;;;;;;;2.75;1.33;;;11.20;99.90;;;;;;5036594;28;20117;-73
2021/05/12 06:02:42;;;;;;;4.05;1.58;;;12.50;99.90;;;;;;5036732;28;20048;-74
2021/05/12 06:05:09;;;;;;;2.88;1.50;;;10.90;99.90;;;;;;5036433;28;20045;-74
2021/05/12 06:07:36;;;;;;;6.70;1.25;;;10.60;99.90;;;;;;5036825;28;20550;-73
2021/05/12 06:10:02;;;;;;;6.57;1.48;;;10.20;99.90;;;;;;5036472;28;20037;-74
2021/05/12 06:12:28;;;;;;;6.22;1.77;;;11.90;99.90;;;;;;5036027;28;20044;-76
2021/05/12 06:14:54;;;;;;;2.70;1.30;;;14.30;95.70;;;;;;5036550;28;20048;-76
2021/05/12 06:17:20;;;;;;;4.47;1.35;;;14.90;90.40;;;;;;5036739;28;20033;-76
2021/05/12 06:19:45;;;;;;;1.83;1.25;;;15.60;86.20;;;;;;5036314;28;20033;-76
2021/05/12 06:22:11;;;;;;;3.50;1.17;;;17.60;68.30;;;;;;5051834;28;20124;-76
2021/05/12 06:24:38;;;;;;;5.07;1.55;;;18.60;58.80;;;;;;5035859;28;20041;-76
2021/05/12 06:27:05;;;;;;;5.10;1.70;;;18.60;50.50;;;;;;5035990;28;20037;-77
2021/05/12 06:29:31;;;;;;;4.72;1.50;;;17.40;48.40;;;;;;5035508;28;20053;-76
2021/05/12 06:31:57;;;;;;;5.15;1.67;;;19.30;43.00;;;;;;5035243;28;20459;-77
2021/05/12 06:34:23;;;;;;;4.18;1.73;;;19.60;47.10;;;;;;5035720;28;20037;-76
2021/05/12 06:36:49;;;;;;;3.65;1.90;;;18.10;52.70;;;;;;5035271;28;20069;-76
2021/05/12 06:39:14;;;;;;;3.55;1.40;;;16.00;59.70;;;;;;5035382;28;20068;-76
2021/05/12 06:41:40;;;;;;;3.80;1.42;;;14.10;72.80;;;;;;5035582;28;20069;-76
2021/05/12 06:44:06;;;;;;;4.18;1.55;;;15.60;76.10;;;;;;5035238;28;20045;-76
2021/05/12 06:46:32;;;;;;;4.35;1.40;;;19.80;54.50;;;;;;5035269;28;20045;-76
2021/05/12 06:48:58;;;;;;;6.25;1.77;;;20.30;40.60;;;;;;5034985;28;20041;-75
2021/05/12 06:51:23;;;;;;;4.93;1.70;;;22.50;37.00;;;;;;5035870;28;20045;-76
2021/05/12 06:53:49;;;;;;;4.28;1.52;;;17.60;46.10;;;;;;5035119;28;20523;-76
2021/05/12 06:56:15;;;;;;;3.85;1.50;;;19.60;41.70;;;;;;5035069;28;20369;-76
2021/05/12 06:58:42;;;;;;;3.03;1.60;;;18.80;47.70;;;;;;5035452;28;20041;-76
2021/05/12 07:01:10;;;;;;;3.90;1.80;;;20.60;39.20;;;;;;5034759;28;20515;-76
2021/05/12 07:03:36;;;;;;;3.45;1.60;;;21.10;36.80;;;;;;5033684;28;20087;-76
2021/05/12 07:06:02;;;;;;;4.60;1.55;;;19.30;41.00;;;;;;5035192;28;20041;-76
2021/05/12 07:08:28;;;;;;;4.65;1.50;;;19.50;43.40;;;;;;5034564;28;20088;-77
2021/05/12 07:10:54;;;;;;;3.75;1.73;;;18.10;47.10;;;;;;5035489;28;20045;-76
2021/05/12 07:13:20;;;;;;;4.55;1.63;;;18.10;47.80;;;;;;5034507;28;20067;-76
2021/05/12 07:15:46;;;;;;;3.80;1.38;;;20.40;43.60;;;;;;5034959;28;20091;-75
2021/05/12 07:18:11;;;;;;;3.92;1.40;;;21.60;35.10;;;;;;5034857;28;20530;-76
2021/05/12 07:20:38;;;;;;;6.18;1.73;;;20.50;35.20;;;;;;5034674;28;20041;-76
2021/05/12 07:23:08;;;;;;;5.82;1.10;;;19.60;42.40;;;;;;5034509;28;20041;-76
2021/05/12 07:25:36;;;;;;;4.72;1.30;;;18.40;46.60;;;;;;5034416;28;20041;-76
2021/05/12 07:28:02;;;;;;;3.40;1.17;;;17.60;51.20;;;;;;5034981;28;20033;-76
2021/05/12 07:30:28;;;;;;;2.97;1.00;;;17.60;49.40;;;;;;5034517;28;20107;-76
2021/05/12 07:32:55;;;;;;;4.82;1.80;;;17.00;48.70;;;;;;5034163;28;20037;-76
2021/05/12 07:35:21;;;;;;;4.65;0.90;;;15.70;48.90;;;;;;5034400;28;20045;-76
2021/05/12 07:37:47;;;;;;;4.63;1.30;;;15.00;53.10;;;;;;5034433;28;20041;-76
2021/05/12 07:40:13;;;;;;;3.60;1.35;;;15.10;55.40;;;;;;5034923;28;20357;-76
2021/05/12 07:42:42;;;;;;;2.35;1.00;;;15.90;54.10;;;;;;5034579;28;20037;-76
2021/05/12 07:45:10;;;;;;;3.50;0.90;;;16.00;53.30;;;;;;5034447;28;20484;-76
2021/05/12 07:47:36;;;;;;;6.03;1.30;;;16.30;54.00;;;;;;5034892;28;20037;-76
2021/05/12 07:50:03;;;;;;;5.63;1.25;;;15.70;53.30;;;;;;5034086;28;20045;-75
2021/05/12 07:52:29;;;;;;;5.32;1.27;;;15.40;56.20;;;;;;5034048;28;20076;-76
2021/05/12 07:54:55;;;;;;;4.43;0.93;;;16.40;55.30;;;;;;5034742;28;20065;-75
2021/05/12 07:57:21;;;;;;;4.03;1.23;;;16.50;53.70;;;;;;5034919;28;20025;-76
2021/05/12 07:59:47;;;;;;;3.58;1.23;;;16.60;51.80;;;;;;5034461;28;20534;-76
2021/05/12 08:02:14;;;;;;;3.83;1.58;;;16.10;52.60;;;;;;5033672;28;20077;-76
2021/05/12 08:04:40;;;;;;;6.50;1.63;;;16.90;53.80;;;;;;5034036;28;20038;-76
2021/05/12 08:07:06;;;;;;;4.78;1.20;;;17.30;54.80;;;;;;5034128;28;20039;-76
2021/05/12 08:09:32;;;;;;;2.30;1.02;;;17.10;50.00;;;;;;5034882;28;20040;-76
2021/05/12 08:11:59;;;;;;;5.47;1.23;;;18.00;48.20;;;;;;5034248;28;20128;-76
2021/05/12 08:14:24;;;;;;;3.35;1.23;;;18.00;47.40;;;;;;5034014;28;20052;-75
2021/05/12 08:16:50;;;;;;;5.93;1.40;;;18.00;47.10;;;;;;5034663;28;20369;-76
2021/05/12 08:19:16;;;;;;;6.40;1.42;;;17.20;45.60;;;;;;5033953;28;20092;-77
2021/05/12 08:21:43;;;;;;;5.60;1.30;;;17.30;47.90;;;;;;5037682;28;20557;-76
2021/05/12 08:24:09;;;;;;;2.50;1.08;;;17.10;46.30;;;;;;5037901;28;20037;-76
2021/05/12 08:26:35;;;;;;;5.93;1.10;;;17.70;46.30;;;;;;5037818;28;20164;-76
2021/05/12 08:29:03;;;;;;;4.30;1.10;;;18.00;46.70;;;;;;5038204;28;20087;-77
2021/05/12 08:31:30;;;;;;;3.83;1.10;;;18.10;45.10;;;;;;5037778;28;20049;-77
2021/05/12 08:33:56;;;;;;;3.90;1.02;;;17.80;47.50;;;;;;5038091;28;20109;-76
2021/05/12 08:36:23;;;;;;;5.47;1.45;;;17.50;47.90;;;;;;5038487;28;20129;-76
2021/05/12 08:38:48;;;;;;;3.97;1.10;;;16.30;50.90;;;;;;5038306;28;20103;-76
2021/05/12 08:41:16;;;;;;;6.35;0.90;;;16.00;54.50;;;;;;5038150;28;20041;-76
2021/05/12 08:43:42;;;;;;;3.58;1.35;;;16.10;55.40;;;;;;5037847;28;20061;-76
2021/05/12 08:46:10;;;;;;;4.50;1.45;;;16.40;54.60;;;;;;5038090;28;20043;-76
2021/05/12 08:48:40;;;;;;;2.10;0.90;;;16.90;46.80;;;;;;5037657;28;20067;-76
2021/05/12 08:51:08;;;;;;;3.92;0.90;;;17.20;45.70;;;;;;5037956;28;20034;-76
2021/05/12 08:53:34;;;;;;;5.05;1.20;;;17.70;45.60;;;;;;5037778;28;20157;-76
2021/05/12 08:56:02;;;;;;;3.95;0.90;;;17.30;45.40;;;;;;5037912;28;20041;-76
2021/05/12 08:58:28;;;;;;;2.53;0.88;;;17.20;44.90;;;;;;5038030;28;20560;-77
2021/05/12 09:00:55;;;;;;;5.28;0.80;;;16.80;47.80;;;;;;5037435;28;20098;-76
2021/05/12 09:03:21;;;;;;;3.65;0.93;;;16.60;47.80;;;;;;5036259;28;20044;-76
2021/05/12 09:05:48;;;;;;;3.55;1.02;;;16.70;46.40;;;;;;5037439;28;20512;-78
2021/05/12 09:08:14;;;;;;;4.32;0.70;;;16.50;47.50;;;;;;5038425;28;20049;-79
2021/05/12 09:10:41;;;;;;;4.30;0.90;;;16.50;44.90;;;;;;5037252;28;20048;-80
2021/05/12 09:13:07;;;;;;;3.13;0.68;;;17.50;47.20;;;;;;5037338;28;20045;-80
2021/05/12 09:15:34;;;;;;;4.05;0.70;;;18.50;39.60;;;;;;5037834;28;20528;-79
2021/05/12 09:18:05;;;;;;;7.38;1.92;;;19.00;37.30;;;;;;5037512;28;20033;-78
2021/05/12 09:20:43;;;;;;;1.73;0.93;;;19.80;37.00;;;;;;5037536;28;20481;-78
2021/05/12 09:23:17;;;;;;;3.33;0.77;;;19.90;35.10;;;;;;5037422;28;20041;-78
2021/05/12 09:25:53;;;;;;;2.10;0.50;;;19.60;34.60;;;;;;5037352;28;20063;-78
2021/05/12 09:28:21;;;;;;;4.70;0.85;;;20.00;31.30;;;;;;5037324;28;20041;-77
2021/05/12 09:31:01;;;;;;;2.33;0.80;;;19.60;31.40;;;;;;5026258;28;20057;-78
2021/05/12 09:33:30;;;;;;;3.75;0.93;;;19.50;30.70;;;;;;5014436;28;20061;-78
2021/05/12 09:35:56;;;;;;;4.15;0.77;;;20.10;32.00;;;;;;5031770;28;20404;-78
2021/05/12 09:38:25;;;;;;;6.10;2.40;;;19.70;31.60;;;;;;5016328;28;20053;-78
2021/05/12 09:41:13;;;;;;;30.00;22.38;;;20.30;31.50;;;;;;5031798;28;20049;-77
2021/05/12 09:43:51;;;;;;;2.75;1.95;;;20.40;32.20;;;;;;5016705;28;20136;-77
2021/05/12 09:46:32;;;;;;;5.07;1.17;;;19.60;31.10;;;;;;5016227;28;20517;-78
2021/05/12 09:49:00;;;;;;;2.13;0.93;;;18.90;31.80;;;;;;5016276;28;20104;-77
2021/05/12 09:51:28;;;;;;;4.00;1.25;;;18.40;34.70;;;;;;5031912;28;20042;-78
2021/05/12 09:54:05;;;;;;;4.18;1.80;;;18.10;36.60;;;;;;5015533;28;20554;-77
2021/05/12 09:56:40;;;;;;;3.10;1.60;;;18.40;33.60;;;;;;5016950;28;20030;-78
2021/05/12 09:59:27;;;;;;;3.53;0.73;;;18.80;32.20;;;;;;5015065;28;20030;-77
2021/05/12 10:01:58;;;;;;;2.95;1.38;;;18.50;32.00;;;;;;5031422;28;20042;-77
2021/05/12 10:04:30;;;;;;;2.03;0.70;;;20.00;32.90;;;;;;5016944;28;20034;-77
2021/05/12 10:06:57;;;;;;;7.50;1.67;;;20.10;29.10;;;;;;5014636;28;20121;-78
2021/05/12 10:09:26;;;;;;;1.50;0.88;;;20.90;29.70;;;;;;5015082;28;20042;-78
2021/05/12 10:12:09;;;;;;;4.45;2.92;;;21.30;28.70;;;;;;5031544;28;20136;-78
2021/05/12 10:14:38;;;;;;;1.35;0.70;;;21.40;29.40;;;;;;5014784;28;20070;-78
2021/05/12 10:17:11;;;;;;;2.92;0.77;;;21.10;28.10;;;;;;5015056;28;20393;-77
2021/05/12 10:19:38;;;;;;;3.05;0.50;;;20.30;27.60;;;;;;5016696;28;20030;-77
2021/05/12 10:22:05;;;;;;;1.35;0.73;;;19.90;28.60;;;;;;5014887;28;20061;-78
2021/05/12 10:24:35;;;;;;;2.08;1.10;;;19.50;29.00;;;;;;5015829;28;20497;-79
2021/05/12 10:27:07;;;;;;;1.25;0.50;;;19.30;29.10;;;;;;5016436;28;20053;-77
2021/05/12 10:29:33;;;;;;;1.33;0.60;;;18.80;28.90;;;;;;5030841;28;20050;-78
2021/05/12 10:31:59;;;;;;;0.90;0.47;;;18.30;30.70;;;;;;5015285;28;20053;-80
2021/05/12 10:34:39;;;;;;;2.47;0.63;;;18.20;32.60;;;;;;5014921;28;20045;-81
2021/05/12 10:37:28;;;;;;;1.15;0.50;;;18.40;33.70;;;;;;5016521;28;20041;-81
2021/05/12 10:40:02;;;;;;;1.27;0.40;;;17.70;29.90;;;;;;5016511;28;20041;-81
2021/05/12 10:45:53;;;;;;;1.50;0.55;;;18.30;33.10;;;;;;5015860;28;20108;-81
2021/05/12 10:48:40;;;;;;;2.13;0.63;;;17.90;31.30;;;;;;5016010;28;20048;-81
2021/05/12 10:51:20;;;;;;;1.83;0.50;;;17.50;34.50;;;;;;5030903;28;20132;-83
2021/05/12 10:53:49;;;;;;;1.58;0.77;;;17.50;40.50;;;;;;5013842;28;20053;-82
2021/05/12 10:56:16;;;;;;;3.22;1.05;;;17.20;37.00;;;;;;5013770;28;20126;-82
2021/05/12 10:59:02;;;;;;;3.22;1.05;;;17.00;39.60;;;;;;5014067;28;20519;-81
2021/05/12 11:01:34;;;;;;;2.53;0.70;;;16.90;35.10;;;;;;5014660;28;20067;-82
2021/05/12 11:04:00;;;;;;;4.55;0.90;;;16.90;36.50;;;;;;5030903;28;20358;-82
2021/05/12 11:06:35;;;;;;;2.65;0.95;;;16.90;36.20;;;;;;5015097;28;20088;-81
2021/05/12 11:09:12;;;;;;;9.85;4.25;;;16.80;36.80;;;;;;5015674;28;20493;-82
2021/05/12 11:11:38;;;;;;;5.43;3.00;;;16.90;37.00;;;;;;5015649;28;20088;-82
2021/05/12 11:14:25;;;;;;;4.55;2.08;;;17.10;38.80;;;;;;5015308;28;20057;-82
2021/05/12 11:17:14;;;;;;;4.88;1.17;;;17.20;37.20;;;;;;5015561;28;20046;-82
2021/05/12 11:19:40;;;;;;;1.75;0.85;;;17.10;37.70;;;;;;5013686;28;20033;-82
2021/05/12 11:22:44;;;;;;;1.98;0.50;;;17.20;39.70;;;;;;5013634;28;20041;-81
2021/05/12 11:25:24;;;;;;;1.27;0.60;;;16.90;37.40;;;;;;5011559;28;20087;-77
2021/05/12 11:33:22;;;;;;;4.35;1.70;;;17.00;35.90;;;;;;5031499;28;20570;-80
2021/05/12 11:35:53;;;;;;;1.38;0.60;;;17.40;40.20;;;;;;5033822;28;20045;-80
2021/05/12 11:38:19;;;;;;;2.55;0.90;;;17.50;32.50;;;;;;5033950;28;20041;-81
2021/05/12 11:41:10;;;;;;;1.25;0.60;;;17.80;33.50;;;;;;5033196;28;20037;-81
2021/05/12 11:43:43;;;;;;;3.47;0.75;;;18.10;30.70;;;;;;5033062;28;20110;-80
2021/05/12 11:46:18;;;;;;;3.25;0.80;;;18.30;33.50;;;;;;5032986;28;20358;-79
2021/05/12 11:48:53;;;;;;;1.30;0.90;;;17.90;30.20;;;;;;5031155;28;20126;-78
2021/05/12 11:51:34;;;;;;;2.03;0.80;;;17.90;34.80;;;;;;5032808;28;20059;-79
2021/05/12 11:54:04;;;;;;;2.42;0.70;;;18.00;36.50;;;;;;5034484;28;20041;-79
2021/05/12 11:56:30;;;;;;;2.03;0.70;;;17.90;34.60;;;;;;5034394;28;20184;-79
2021/05/12 11:59:00;;;;;;;1.27;0.47;;;17.80;35.00;;;;;;5034855;28;20060;-78
2021/05/12 12:01:28;;;;;;;1.80;0.60;;;18.00;32.30;;;;;;5034226;28;20041;-78
2021/05/12 12:04:18;;;;;;;1.25;0.50;;;18.30;30.70;;;;;;5033275;28;20508;-79
2021/05/12 12:06:46;;;;;;;2.05;0.47;;;18.70;30.90;;;;;;5031797;28;20497;-80
2021/05/12 12:09:13;;;;;;;1.00;0.50;;;19.60;29.90;;;;;;5034396;28;20051;-79
2021/05/12 12:11:40;;;;;;;2.85;0.55;;;20.40;28.30;;;;;;5034523;28;20045;-79
2021/05/12 12:14:07;;;;;;;2.10;0.75;;;20.40;26.40;;;;;;5033855;28;20065;-79
2021/05/12 12:16:35;;;;;;;2.00;0.43;;;20.60;25.50;;;;;;5034581;28;20189;-80
2021/05/12 12:19:27;;;;;;;0.93;0.50;;;20.70;25.30;;;;;;5034173;28;20083;-78
2021/05/12 12:21:57;;;;;;;0.90;0.60;;;21.00;24.40;;;;;;5032937;28;20038;-79
2021/05/12 12:24:25;;;;;;;1.25;0.65;;;21.30;25.20;;;;;;5033224;28;20030;-79
2021/05/12 12:26:53;;;;;;;2.00;0.55;;;21.50;23.90;;;;;;5034510;28;20044;-79
2021/05/12 12:29:39;;;;;;;2.97;0.98;;;21.30;23.60;;;;;;5034201;28;20040;-80
2021/05/12 12:32:08;;;;;;;1.95;0.70;;;21.70;24.70;;;;;;5034164;28;20046;-80
2021/05/12 12:34:39;;;;;;;2.40;0.80;;;21.10;24.30;;;;;;5034152;28;20037;-80
2021/05/12 12:37:12;;;;;;;;;;;21.20;25.20;;;;;;5034506;28;20404;-77
2021/05/12 12:39:53;;;;;;;1.33;0.80;;;21.20;26.10;;;;;;5034113;28;19909;-79
2021/05/12 12:42:27;;;;;;;0.93;0.63;;;21.10;26.50;;;;;;5032844;28;20037;-79
2021/05/12 12:44:53;;;;;;;4.68;0.70;;;21.10;25.20;;;;;;5034524;28;20046;-79
2021/05/12 12:47:20;;;;;;;3.40;1.30;;;21.00;25.80;;;;;;5034158;28;20508;-79
2021/05/12 12:49:51;;;;;;;2.75;0.70;;;21.20;27.40;;;;;;5034261;28;20049;-79
2021/05/12 12:52:29;;;;;;;3.05;0.60;;;21.20;26.30;;;;;;5034475;28;20045;-80
2021/05/12 12:55:05;;;;;;;1.95;0.50;;;21.10;25.20;;;;;;5032734;28;20033;-79
2021/05/12 12:58:00;;;;;;;1.75;0.60;;;20.80;26.20;;;;;;5034502;28;20045;-80
2021/05/12 13:00:36;;;;;;;2.00;0.55;;;20.70;26.90;;;;;;5033078;28;20537;-81
2021/05/12 13:03:23;;;;;;;2.97;0.77;;;20.70;25.00;;;;;;5034310;28;20072;-81
2021/05/12 13:05:54;;;;;;;1.77;0.68;;;20.70;27.10;;;;;;5034368;28;20037;-81